createdAt,value
2022-08-04T00:01:29.675Z,17.91
2022-08-04T00:04:45.875Z,17.83
2022-08-04T00:08:08.176Z,17.72
2022-08-04T00:11:23.419Z,17.69
2022-08-04T00:14:36.554Z,17.71
2022-08-04T00:17:50.286Z,17.84
2022-08-04T00:21:06.766Z,17.84
2022-08-04T00:24:17.483Z,17.76
2022-08-04T00:27:30.013Z,17.73
2022-08-04T00:30:38.745Z,17.70
2022-08-04T00:33:47.957Z,17.66
2022-08-04T00:36:59.237Z,17.64
2022-08-04T00:40:24.918Z,17.61
2022-08-04T00:43:40.875Z,17.64
2022-08-04T00:47:16.721Z,17.62
2022-08-04T00:50:37.042Z,17.58
2022-08-04T00:54:02.574Z,17.54
2022-08-04T00:57:34.025Z,17.58
2022-08-04T01:00:53.700Z,17.46
2022-08-04T01:04:11.927Z,17.45
2022-08-04T01:07:53.709Z,17.35
2022-08-04T01:11:21.450Z,17.30
2022-08-04T01:14:53.038Z,17.26
2022-08-04T01:18:09.805Z,17.25
2022-08-04T01:22:19.780Z,17.11
2022-08-04T01:26:44.110Z,17.20
2022-08-04T01:29:54.964Z,17.11
2022-08-04T01:33:06.188Z,16.98
2022-08-04T01:36:14.682Z,17.07
2022-08-04T01:39:42.460Z,17.04
2022-08-04T01:42:55.108Z,17.03
2022-08-04T01:46:07.141Z,17.09
2022-08-04T01:49:16.218Z,16.98
2022-08-04T01:52:25.908Z,17.02
2022-08-04T01:55:54.455Z,16.91
2022-08-04T01:59:05.275Z,16.93
2022-08-04T02:02:15.453Z,16.85
2022-08-04T02:06:04.010Z,16.74
2022-08-04T02:09:13.724Z,16.63
2022-08-04T02:12:40.786Z,16.59
2022-08-04T02:16:02.823Z,16.69
2022-08-04T02:19:30.546Z,16.66
2022-08-04T02:22:59.626Z,16.63
2022-08-04T02:26:22.336Z,16.74
2022-08-04T02:29:41.928Z,16.62
2022-08-04T02:32:59.361Z,16.52
2022-08-04T02:36:17.844Z,16.46
2022-08-04T02:39:48.451Z,16.45
2022-08-04T02:43:00.141Z,16.41
2022-08-04T02:46:17.812Z,16.33
2022-08-04T02:49:28.223Z,16.32
2022-08-04T02:52:46.453Z,16.23
2022-08-04T02:55:57.172Z,16.29
2022-08-04T02:59:09.042Z,16.25
2022-08-04T03:02:35.884Z,16.27
2022-08-04T03:06:19.792Z,16.21
2022-08-04T03:10:08.321Z,16.21
2022-08-04T03:14:00.398Z,16.25
2022-08-04T03:17:53.835Z,16.15
2022-08-04T03:21:55.028Z,16.13
2022-08-04T03:25:58.580Z,16.09
2022-08-04T03:30:01.476Z,16.03
2022-08-04T03:33:45.192Z,15.96
2022-08-04T03:37:33.871Z,15.95
2022-08-04T03:41:55.147Z,15.97
2022-08-04T03:45:34.557Z,15.97
2022-08-04T03:49:18.070Z,15.92
2022-08-04T03:53:24.406Z,15.94
2022-08-04T03:57:18.107Z,15.99
2022-08-04T04:00:41.743Z,15.91
2022-08-04T04:04:44.645Z,15.83
2022-08-04T04:08:19.429Z,15.79
2022-08-04T04:12:15.202Z,15.86
2022-08-04T04:15:50.238Z,15.77
2022-08-04T04:19:51.751Z,15.88
2022-08-04T04:23:31.935Z,15.96
2022-08-04T04:26:58.427Z,15.96
2022-08-04T04:30:13.535Z,16.04
2022-08-04T04:33:44.370Z,16.12
2022-08-04T04:37:19.260Z,16.27
2022-08-04T04:40:46.390Z,16.32
2022-08-04T04:44:51.696Z,16.42
2022-08-04T04:48:16.274Z,16.51
2022-08-04T04:51:38.644Z,16.62
2022-08-04T04:55:01.459Z,16.67
2022-08-04T04:58:18.096Z,16.79
2022-08-04T05:02:17.355Z,16.90
2022-08-04T05:06:16.373Z,16.99
2022-08-04T05:09:38.661Z,17.12
2022-08-04T05:14:38.230Z,17.23
2022-08-04T05:17:01.426Z,17.33
2022-08-04T05:20:18.503Z,17.45
2022-08-04T05:23:31.722Z,17.57
2022-08-04T05:26:46.403Z,17.73
2022-08-04T05:30:04.246Z,17.82
2022-08-04T05:33:29.239Z,17.96
2022-08-04T05:36:45.549Z,18.16
2022-08-04T05:39:59.355Z,18.31
2022-08-04T05:43:08.764Z,18.46
2022-08-04T05:46:19.687Z,18.62
2022-08-04T05:49:30.507Z,18.74
2022-08-04T05:52:40.356Z,18.88
2022-08-04T05:55:59.386Z,19.11
2022-08-04T05:59:10.721Z,19.47
2022-08-04T06:02:22.485Z,20.71
2022-08-04T06:05:31.874Z,21.30
2022-08-04T06:08:40.475Z,21.22
2022-08-04T06:12:00.438Z,21.27
2022-08-04T06:15:20.672Z,22.25
2022-08-04T06:19:59.346Z,24.92
2022-08-04T06:22:09.842Z,27.42
2022-08-04T06:25:25.083Z,28.59
2022-08-04T06:28:35.501Z,30.36
2022-08-04T06:32:29.980Z,31.58
2022-08-04T06:35:18.980Z,31.11
2022-08-04T06:38:31.104Z,31.27
2022-08-04T06:42:02.444Z,32.53
2022-08-04T06:45:14.917Z,33.08
2022-08-04T06:48:31.637Z,33.68
2022-08-04T06:51:49.184Z,34.55
2022-08-04T06:54:58.486Z,32.61
2022-08-04T06:58:10.203Z,30.96
2022-08-04T07:01:25.557Z,32.36
2022-08-04T07:04:34.296Z,30.22
2022-08-04T07:07:56.509Z,32.45
2022-08-04T07:11:07.166Z,33.81
2022-08-04T07:14:17.429Z,34.03
2022-08-04T07:17:34.708Z,35.12
2022-08-04T07:20:45.035Z,34.70
2022-08-04T07:23:53.538Z,31.29
2022-08-04T07:27:02.823Z,32.78
2022-08-04T07:30:12.552Z,33.84
2022-08-04T07:33:27.876Z,34.44
2022-08-04T07:36:50.475Z,34.77
2022-08-04T07:39:59.692Z,34.49
2022-08-04T07:43:09.276Z,34.08
2022-08-04T07:46:18.028Z,35.35
2022-08-04T07:49:55.180Z,35.14
2022-08-04T07:53:15.575Z,31.55
2022-08-04T07:56:28.070Z,29.39
2022-08-04T07:59:37.568Z,29.50
2022-08-04T08:02:51.122Z,31.77
2022-08-04T08:06:30.394Z,32.11
2022-08-04T08:09:36.780Z,33.23
2022-08-04T08:12:51.366Z,33.83
2022-08-04T08:16:01.477Z,34.83
2022-08-04T08:19:11.250Z,34.27
2022-08-04T08:22:20.863Z,35.03
2022-08-04T08:25:31.292Z,34.76
2022-08-04T08:28:39.957Z,35.15
2022-08-04T08:31:56.620Z,34.66
2022-08-04T08:35:09.016Z,35.19
2022-08-04T08:38:25.437Z,35.02
2022-08-04T08:42:29.487Z,32.10
2022-08-04T08:46:09.842Z,32.92
2022-08-04T08:50:08.392Z,33.87
2022-08-04T08:53:51.282Z,32.82
2022-08-04T08:57:25.271Z,33.75
2022-08-04T09:00:49.265Z,33.78
2022-08-04T09:04:40.142Z,34.64
2022-08-04T09:08:07.791Z,33.56
2022-08-04T09:11:23.220Z,33.16
2022-08-04T09:14:43.340Z,33.91
2022-08-04T09:17:59.661Z,32.39
2022-08-04T09:21:18.569Z,32.28
2022-08-04T09:24:46.262Z,31.92
2022-08-04T09:28:04.301Z,31.47
2022-08-04T09:31:24.251Z,30.99
2022-08-04T09:34:46.519Z,31.82
2022-08-04T09:38:22.149Z,31.57
2022-08-04T09:41:49.425Z,32.53
2022-08-04T09:45:17.066Z,32.64
2022-08-04T09:48:51.977Z,32.65
2022-08-04T09:52:25.025Z,32.82
2022-08-04T09:55:53.017Z,32.53
2022-08-04T09:59:23.321Z,32.94
2022-08-04T10:02:40.670Z,33.21
2022-08-04T10:06:07.961Z,32.54
2022-08-04T10:09:37.992Z,32.74
2022-08-04T10:13:16.959Z,33.01
2022-08-04T10:16:49.443Z,33.17
2022-08-04T10:20:35.923Z,33.32
2022-08-04T10:24:16.311Z,33.37
2022-08-04T10:27:34.237Z,33.00
2022-08-04T10:30:50.804Z,32.57
2022-08-04T10:34:11.552Z,32.21
2022-08-04T10:37:59.182Z,32.14
2022-08-04T10:41:10.740Z,32.71
2022-08-04T10:44:41.971Z,32.82
2022-08-04T10:48:06.972Z,32.86
2022-08-04T10:51:31.193Z,31.98
2022-08-04T10:55:12.816Z,32.01
2022-08-04T10:58:47.328Z,32.06
2022-08-04T11:02:07.278Z,32.69
2022-08-04T11:05:31.675Z,33.02
2022-08-04T11:08:49.041Z,33.10
2022-08-04T11:12:12.027Z,33.15
2022-08-04T11:15:26.829Z,33.21
2022-08-04T11:18:49.429Z,32.64
2022-08-04T11:22:03.994Z,32.88
2022-08-04T11:25:26.679Z,33.10
2022-08-04T11:28:58.434Z,33.27
2022-08-04T11:32:21.544Z,33.27
2022-08-04T11:35:43.577Z,32.61
2022-08-04T11:39:04.869Z,32.46
2022-08-04T11:42:22.140Z,32.17
2022-08-04T11:45:39.432Z,32.38
2022-08-04T11:48:57.373Z,32.37
2022-08-04T11:52:09.907Z,32.24
2022-08-04T11:55:21.388Z,32.43
2022-08-04T11:58:30.763Z,32.77
2022-08-04T12:02:21.315Z,32.52
2022-08-04T12:05:37.840Z,32.66
2022-08-04T12:09:04.506Z,32.83
2022-08-04T12:12:27.267Z,32.36
2022-08-04T12:15:52.466Z,32.30
2022-08-04T12:19:13.711Z,32.65
2022-08-04T12:22:31.553Z,32.89
2022-08-04T12:25:48.097Z,33.11
2022-08-04T12:29:11.326Z,32.93
2022-08-04T12:32:27.269Z,32.79
2022-08-04T12:36:10.622Z,32.78
2022-08-04T12:39:19.995Z,33.15
2022-08-04T12:42:37.823Z,33.31
2022-08-04T12:45:51.739Z,32.67
2022-08-04T12:49:04.458Z,32.72
2022-08-04T12:52:20.307Z,32.71
2022-08-04T12:55:34.448Z,32.79
2022-08-04T12:58:47.825Z,32.92
2022-08-04T13:02:09.815Z,33.02
2022-08-04T13:05:23.866Z,32.86
2022-08-04T13:08:39.105Z,33.25
2022-08-04T13:11:56.838Z,33.46
2022-08-04T13:15:17.910Z,33.74
2022-08-04T13:18:31.982Z,33.81
2022-08-04T13:21:50.252Z,33.80
2022-08-04T13:26:40.246Z,33.84
2022-08-04T13:28:46.326Z,33.15
2022-08-04T13:31:56.804Z,33.19
2022-08-04T13:35:10.609Z,33.49
2022-08-04T13:38:21.540Z,33.56
2022-08-04T13:41:32.385Z,33.58
2022-08-04T13:44:48.895Z,33.48
2022-08-04T13:48:15.175Z,33.60
2022-08-04T13:51:57.584Z,33.40
2022-08-04T13:55:02.072Z,33.17
2022-08-04T13:58:20.966Z,33.39
2022-08-04T14:01:35.799Z,33.60
2022-08-04T14:04:57.299Z,33.61
2022-08-04T14:08:10.769Z,33.34
2022-08-04T14:12:07.082Z,32.92
2022-08-04T14:14:55.318Z,33.15
2022-08-04T14:18:22.934Z,33.49
2022-08-04T14:21:38.053Z,33.59
2022-08-04T14:24:58.337Z,33.63
2022-08-04T14:28:06.992Z,33.30
2022-08-04T14:31:20.715Z,33.26
2022-08-04T14:34:33.512Z,33.41
2022-08-04T14:37:55.901Z,33.56
2022-08-04T14:41:04.219Z,33.49
2022-08-04T14:44:12.555Z,33.41
2022-08-04T14:47:41.930Z,33.29
2022-08-04T14:51:01.482Z,33.34
2022-08-04T14:54:17.343Z,33.41
2022-08-04T14:57:27.062Z,33.54
2022-08-04T15:00:37.842Z,33.76
2022-08-04T15:03:50.486Z,33.74
2022-08-04T15:07:04.711Z,33.73
2022-08-04T15:10:13.692Z,33.56
2022-08-04T15:13:21.956Z,33.62
2022-08-04T15:16:34.294Z,33.58
2022-08-04T15:19:55.355Z,33.55
2022-08-04T15:23:10.133Z,33.62
2022-08-04T15:26:26.902Z,33.55
2022-08-04T15:30:00.369Z,33.56
2022-08-04T15:33:11.135Z,33.25
2022-08-04T15:36:43.397Z,33.35
2022-08-04T15:40:11.045Z,33.32
2022-08-04T15:43:45.416Z,33.23
2022-08-04T15:47:14.890Z,33.16
2022-08-04T15:50:28.382Z,33.16
2022-08-04T15:54:27.458Z,33.23
2022-08-04T15:58:03.335Z,33.41
2022-08-04T16:01:18.218Z,33.35
2022-08-04T16:04:26.894Z,33.30
2022-08-04T16:07:57.713Z,33.20
2022-08-04T16:11:07.782Z,33.17
2022-08-04T16:14:17.285Z,33.24
2022-08-04T16:17:28.688Z,33.17
2022-08-04T16:20:38.609Z,33.09
2022-08-04T16:24:18.332Z,32.99
2022-08-04T16:27:43.395Z,33.05
2022-08-04T16:31:00.406Z,32.98
2022-08-04T16:34:50.316Z,32.88
2022-08-04T16:37:44.529Z,32.80
2022-08-04T16:40:57.628Z,32.80
2022-08-04T16:44:52.065Z,32.83
2022-08-04T16:48:09.042Z,32.96
2022-08-04T16:51:17.747Z,32.89
2022-08-04T16:54:26.486Z,32.90
2022-08-04T16:57:38.667Z,34.21
2022-08-04T17:00:49.517Z,36.47
2022-08-04T17:04:04.596Z,39.03
2022-08-04T17:07:13.037Z,41.88
2022-08-04T17:10:32.642Z,44.39
2022-08-04T17:14:03.000Z,45.45
2022-08-04T17:17:13.714Z,46.67
2022-08-04T17:20:28.403Z,46.81
2022-08-04T17:24:12.558Z,44.64
2022-08-04T17:28:09.616Z,42.84
2022-08-04T17:30:58.308Z,39.00
2022-08-04T17:34:16.666Z,36.44
2022-08-04T17:37:39.563Z,34.80
2022-08-04T17:40:59.164Z,33.49
2022-08-04T17:44:08.325Z,32.55
2022-08-04T17:47:19.394Z,31.94
2022-08-04T17:50:35.622Z,31.50
2022-08-04T17:54:02.516Z,31.19
2022-08-04T17:57:20.253Z,30.80
2022-08-04T18:00:36.871Z,30.52
2022-08-04T18:03:53.394Z,30.24
2022-08-04T18:10:51.626Z,29.76
2022-08-04T18:14:04.332Z,29.48
2022-08-04T18:17:17.978Z,29.25
2022-08-04T18:20:43.816Z,29.06
2022-08-04T18:24:00.500Z,28.91
2022-08-04T18:27:09.466Z,28.69
2022-08-04T18:30:34.702Z,28.45
2022-08-04T18:33:57.344Z,28.23
2022-08-04T18:38:03.607Z,28.04
2022-08-04T18:40:52.700Z,27.93
2022-08-04T18:44:03.968Z,27.72
2022-08-04T18:47:22.162Z,27.60
2022-08-04T18:51:09.584Z,27.46
2022-08-04T18:54:03.298Z,27.28
2022-08-04T18:57:32.729Z,27.16
2022-08-04T19:00:48.395Z,27.02
2022-08-04T19:03:57.869Z,26.84
2022-08-04T19:07:29.207Z,26.69
2022-08-04T19:10:37.078Z,26.48
2022-08-04T19:13:54.559Z,26.37
2022-08-04T19:17:12.287Z,26.23
2022-08-04T19:20:25.012Z,26.07
2022-08-04T19:24:30.400Z,25.97
2022-08-04T19:27:06.749Z,25.80
2022-08-04T19:30:17.754Z,25.69
2022-08-04T19:33:55.569Z,25.57
2022-08-04T19:36:55.864Z,25.42
2022-08-04T19:40:06.407Z,25.30
2022-08-04T19:43:17.609Z,25.17
2022-08-04T19:46:29.138Z,25.12
2022-08-04T19:50:04.824Z,25.01
2022-08-04T19:53:19.086Z,24.95
2022-08-04T19:56:29.303Z,24.81
2022-08-04T19:59:48.897Z,24.75
2022-08-04T20:03:11.702Z,24.66
2022-08-04T20:06:20.392Z,24.60
2022-08-04T20:09:29.036Z,24.53
2022-08-04T20:12:45.774Z,24.44
2022-08-04T20:16:05.003Z,24.32
2022-08-04T20:19:30.621Z,24.26
2022-08-04T20:22:50.337Z,24.20
2022-08-04T20:26:00.171Z,24.20
2022-08-04T20:29:10.677Z,24.10
2022-08-04T20:32:22.241Z,24.02
2022-08-04T20:36:00.658Z,23.92
2022-08-04T20:39:01.939Z,23.84
2022-08-04T20:42:12.412Z,23.74
2022-08-04T20:45:22.894Z,23.75
2022-08-04T20:52:09.190Z,23.54
2022-08-04T20:55:21.901Z,23.51
2022-08-04T20:58:30.454Z,23.48
2022-08-04T21:01:39.233Z,23.37
2022-08-04T21:04:48.890Z,23.32
2022-08-04T21:07:59.808Z,23.22
2022-08-04T21:11:09.155Z,23.14
2022-08-04T21:14:17.678Z,23.13
2022-08-04T21:17:57.959Z,23.14
2022-08-04T21:20:58.898Z,23.13
2022-08-04T21:24:13.501Z,23.07
2022-08-04T21:27:24.724Z,22.98
2022-08-04T21:30:54.335Z,22.91
2022-08-04T21:34:04.460Z,22.86
2022-08-04T21:37:14.677Z,22.78
2022-08-04T21:40:34.383Z,22.76
2022-08-04T21:43:44.983Z,22.74
2022-08-04T21:46:54.493Z,22.69
2022-08-04T21:50:03.238Z,22.61
2022-08-04T21:53:13.850Z,22.58
2022-08-04T21:56:30.442Z,22.49
2022-08-04T21:59:45.169Z,22.43
2022-08-04T22:02:54.848Z,22.36
2022-08-04T22:06:03.561Z,22.29
2022-08-04T22:09:14.912Z,22.27
2022-08-04T22:12:25.000Z,22.26
2022-08-04T22:19:10.908Z,22.17
2022-08-04T22:22:25.456Z,22.15
2022-08-04T22:25:37.704Z,22.04
2022-08-04T22:28:50.001Z,21.97
2022-08-04T22:31:58.661Z,21.93
2022-08-04T22:35:36.334Z,21.89
2022-08-04T22:38:48.738Z,21.86
2022-08-04T22:42:04.019Z,21.79
2022-08-04T22:45:14.416Z,21.78
2022-08-04T22:48:22.904Z,21.67
2022-08-04T22:51:31.128Z,21.68
2022-08-04T22:54:39.425Z,21.71
2022-08-04T22:58:04.700Z,21.65
2022-08-04T23:01:17.121Z,21.61
2022-08-04T23:04:25.582Z,21.59
2022-08-04T23:07:38.034Z,21.67
2022-08-04T23:10:58.801Z,21.65
2022-08-04T23:14:08.129Z,21.57
2022-08-04T23:17:18.492Z,21.47
2022-08-04T23:20:32.931Z,21.39
2022-08-04T23:24:00.874Z,21.27
2022-08-04T23:27:12.056Z,21.26
2022-08-04T23:30:24.650Z,21.22
2022-08-04T23:33:49.258Z,21.21
2022-08-04T23:37:00.081Z,21.22
2022-08-04T23:40:29.960Z,21.18
2022-08-04T23:43:55.221Z,21.16
2022-08-04T23:47:06.997Z,21.24
2022-08-04T23:50:16.753Z,21.09
2022-08-04T23:53:25.043Z,21.19
2022-08-04T23:56:35.786Z,21.34
2022-08-04T23:59:51.794Z,21.33
